Flight Track Log - Related Links

Times and Time Zones

All times are in EDT time to prevent confusion due to time zone crossing. See the ASA2 flight status page for this flight to view local times or setup timezone preferences in your user account.

Time Position Orientation Groundspeed Altitude Reporting Facility
EDT Latitude Longitude Course Direction KTS MPH feet Rate Location/Type
Thu 05:20:56 PM 47.4681 -122.3086 360° North 177 204 1,400  Level Seattle Center
Thu 05:21:34 PM 47.4969 -122.3086 360° North 169 194 2,600 1,823 Climbing Seattle Center
Thu 05:22:15 PM 47.5400 -122.3117 357° North 221 254 3,800 1,967 Climbing Seattle Center
Thu 05:22:35 PM 47.5600 -122.3094 North 225 259 4,600 2,507 Climbing Seattle Center
Thu 05:23:22 PM 47.6100 -122.2894 15° North 270 311 6,600 1,967 Climbing Seattle Center
Thu 05:24:37 PM 47.6083 -122.1378 91° East 287 330 8,600 1,059 Climbing Seattle Center
Thu 05:25:38 PM 47.5658 -122.0331 121° Southeast 297 342 9,000 1,180 Climbing Seattle Center
Thu 05:26:39 PM 47.5222 -121.9328 123° Southeast 291 335 11,000 1,918 Climbing Seattle Center
Thu 05:27:40 PM 47.4758 -121.8261 123° Southeast 309 356 12,900 1,525 Climbing Seattle Center
Thu 05:28:41 PM 47.4336 -121.6922 115° Southeast 375 432 14,100 1,820 Climbing Seattle Center
Thu 05:29:42 PM 47.4289 -121.5181 92° East 399 459 16,600 2,115 Climbing Seattle Center
Thu 05:30:43 PM 47.4306 -121.3569 89° East 405 466 18,400 1,770 Climbing Seattle Center
Thu 05:31:44 PM 47.4333 -121.1881 89° East 416 479 20,200 1,721 Climbing Seattle Center
Thu 05:32:45 PM 47.4344 -121.0133 89° East 429 494 21,900 1,721 Climbing Seattle Center
Thu 05:33:46 PM 47.4367 -120.8236 89° East 440 506 23,700 1,525 Climbing Seattle Center
Thu 05:34:47 PM 47.4381 -120.6536 89° East 443 510 25,000 1,328 Climbing Seattle Center
Thu 05:35:48 PM 47.4394 -120.4672 89° East 453 521 26,400 1,279 Climbing Seattle Center
Thu 05:36:49 PM 47.4408 -120.2781 89° East 460 529 27,600 1,289 Climbing Seattle Center
Thu 05:37:49 PM 47.4417 -120.0875 90° East 467 537 29,000 1,240 Climbing Seattle Center
Thu 05:38:50 PM 47.4417 -119.8972 90° East 464 534 30,100 1,082 Climbing Seattle Center
Thu 05:39:51 PM 47.4419 -119.6656 90° East 471 542 31,200 1,328 Climbing Seattle Center
Thu 05:40:52 PM 47.4422 -119.4719 90° East 472 543 32,800 1,328 Climbing Seattle Center
Thu 05:41:53 PM 47.4411 -119.2836 90° East 460 529 33,900 934 Climbing Seattle Center
Thu 05:42:54 PM 47.4414 -119.0975 90° East 457 526 34,700 541 Climbing Seattle Center
Thu 05:43:55 PM 47.4389 -118.9075 91° East 461 531 35,000 148 Climbing Seattle Center
Thu 05:44:56 PM 47.4381 -118.7181 90° East 463 533 35,000  Level Seattle Center
Thu 05:45:57 PM 47.4361 -118.5283 91° East 463 533 35,000  Level Seattle Center
Thu 05:46:58 PM 47.4336 -118.3400 91° East 461 531 35,000  Level Seattle Center
Thu 05:47:59 PM 47.4319 -118.1522 91° East 460 529 35,000  Level Seattle Center
Thu 05:49:00 PM 47.4289 -117.9644 91° East 460 529 35,000  Level Seattle Center
Thu 05:50:01 PM 47.4261 -117.7775 91° East 459 528 35,000  Level Seattle Center
Thu 05:51:02 PM 47.4233 -117.5542 91° East 457 526 35,000  Level Seattle Center
Thu 05:52:03 PM 47.4194 -117.3697 92° East 455 524 35,000  Level Seattle Center
Thu 05:53:04 PM 47.4150 -117.1850 92° East 458 527 35,000  Level Seattle Center
Thu 05:54:05 PM 47.4111 -117.0017 92° East 459 528 35,000  Level Seattle Center
Thu 05:55:06 PM 47.4072 -116.8181 92° East 456 525 35,000  Level Seattle Center
Thu 05:56:07 PM 47.4028 -116.6350 92° East 454 522 35,000  Level Seattle Center
Thu 05:57:08 PM 47.3981 -116.4500 92° East 454 522 35,000  Level Seattle Center
Thu 05:58:09 PM 47.3917 -116.2261 92° East 458 527 35,000  Level Seattle Center
Thu 05:59:10 PM 47.3853 -116.0389 93° East 458 527 35,000  Level Seattle Center
Thu 06:00:13 PM 47.3789 -115.8500 93° East 462 532 35,000  Level Seattle Center
Thu 06:01:14 PM 47.3731 -115.6600 93° East 460 529 35,000  Level Seattle Center
Thu 06:02:15 PM 47.3667 -115.4736 93° East 458 527 35,000  Level Seattle Center
Thu 06:03:16 PM 47.3592 -115.2864 93° East 460 529 35,000  Level Seattle Center
Thu 06:04:17 PM 47.3528 -115.1022 93° East 456 525 35,000  Level Seattle Center
Thu 06:05:18 PM 47.3453 -114.9178 93° East 453 521 35,000  Level Seattle Center
Thu 06:06:19 PM 47.3256 -114.7358 99° East 455 524 35,000  Level Seattle Center
Thu 06:07:13 PM 47.2944 -114.5539 104° East 457 526 35,000  Level Salt Lake Center
Thu 06:08:15 PM 47.2647 -114.3742 104° East 457 526 35,000  Level Salt Lake Center
Thu 06:09:17 PM 47.2361 -114.1922 103° East 459 528 35,000 387 Level Salt Lake Center
Thu 06:10:19 PM 47.2078 -114.0103 103° East 460 529 35,800 484 Climbing Salt Lake Center
Thu 06:11:21 PM 47.1731 -113.7947 103° East 456 525 36,000 98 Climbing Salt Lake Center
Thu 06:12:22 PM 47.1467 -113.6117 102° East 460 529 36,000  Level Salt Lake Center
Thu 06:13:24 PM 47.1272 -113.4269 99° East 460 529 36,000  Level Salt Lake Center
Thu 06:14:26 PM 47.1072 -113.2411 99° East 462 532 36,000  Level Salt Lake Center
Thu 06:15:28 PM 47.0881 -113.0561 99° East 461 531 36,000  Level Salt Lake Center
Thu 06:16:30 PM 47.0656 -112.8356 98° East 466 536 36,000  Level Salt Lake Center
Thu 06:17:32 PM 47.0461 -112.6497 99° East 465 535 36,000  Level Salt Lake Center
Thu 06:18:34 PM 47.0269 -112.4647 99° East 462 532 36,000  Level Salt Lake Center
Thu 06:19:36 PM 47.0122 -112.2781 97° East 461 531 36,000  Level Salt Lake Center
Thu 06:20:37 PM 47.0208 -112.0933 86° East 456 525 36,000  Level Salt Lake Center
Thu 06:21:39 PM 47.0314 -111.9072 85° East 458 527 36,000  Level Salt Lake Center
Thu 06:22:41 PM 47.0361 -111.6869 88° East 457 526 36,000  Level Salt Lake Center
Thu 06:23:43 PM 47.0269 -111.5044 94° East 453 521 36,000  Level Salt Lake Center
Thu 06:24:45 PM 47.0158 -111.3261 95° East 448 516 36,000  Level Salt Lake Center
Thu 06:25:47 PM 47.0028 -111.1408 96° East 458 527 36,000  Level Salt Lake Center
Thu 06:26:49 PM 46.9897 -110.9531 96° East 466 536 36,000  Level Salt Lake Center
Thu 06:27:51 PM 46.9747 -110.7286 96° East 467 537 36,000 -390 Level Salt Lake Center
Thu 06:28:52 PM 46.9614 -110.5400 96° East 470 541 35,200 -488 Descending Salt Lake Center
Thu 06:29:54 PM 46.9475 -110.3525 96° East 467 537 35,000 -97 Descending Salt Lake Center
Thu 06:30:56 PM 46.9350 -110.1653 96° East 466 536 35,000  Level Salt Lake Center
Thu 06:31:58 PM 46.9233 -109.9764 95° East 469 540 35,000  Level Salt Lake Center
Thu 06:33:00 PM 46.9089 -109.7917 96° East 463 533 35,000  Level Salt Lake Center
Thu 06:34:02 PM 46.8908 -109.5736 97° East 456 525 35,000  Level Salt Lake Center
Thu 06:35:03 PM 46.8769 -109.3903 96° East 455 524 35,000  Level Salt Lake Center
Thu 06:36:05 PM 46.8614 -109.2103 97° East 452 520 35,000  Level Salt Lake Center
Thu 06:37:07 PM 46.8422 -109.0108 98° East 449 517 35,000  Level Salt Lake Center
Thu 06:38:09 PM 46.8272 -108.8292 97° East 442 509 35,000  Level Salt Lake Center
Thu 06:39:10 PM 46.8119 -108.6514 97° East 455 524 35,000  Level Salt Lake Center
Thu 06:41:14 PM 46.7772 -108.2711 97° East 455 524 35,000  Level Salt Lake Center
Thu 06:42:16 PM 46.7622 -108.0936 97° East 458 527 35,000  Level Salt Lake Center
Thu 06:43:17 PM 46.7417 -107.8867 98° East 462 532 35,000  Level Salt Lake Center
Thu 06:44:19 PM 46.7253 -107.7081 98° East 464 534 35,000  Level Salt Lake Center
Thu 06:45:21 PM 46.7044 -107.5011 98° East 463 533 35,000  Level Salt Lake Center
Thu 06:46:22 PM 46.6878 -107.3217 98° East 466 536 35,000  Level Salt Lake Center
Thu 06:47:24 PM 46.6694 -107.1439 98° East 465 535 35,000  Level Salt Lake Center
Thu 06:48:26 PM 46.6475 -106.9333 99° East 469 540 35,000  Level Salt Lake Center
Thu 06:49:27 PM 46.6286 -106.7494 98° East 474 545 35,000  Level Salt Lake Center
Thu 06:50:29 PM 46.6058 -106.5358 99° East 477 549 35,000  Level Salt Lake Center
Thu 06:51:31 PM 46.5853 -106.3531 99° East 479 551 35,000  Level Salt Lake Center
Thu 06:52:32 PM 46.5658 -106.1711 99° East 478 550 35,000  Level Salt Lake Center
Thu 06:53:34 PM 46.5411 -105.9575 99° East 479 551 35,000  Level Salt Lake Center
Thu 06:54:36 PM 46.5197 -105.7764 100° East 477 549 35,000  Level Salt Lake Center
Thu 06:55:37 PM 46.4961 -105.5667 99° East 474 545 35,000  Level Salt Lake Center
Thu 06:56:39 PM 46.4761 -105.3881 99° East 471 542 35,000  Level Salt Lake Center
Thu 06:57:40 PM 46.4506 -105.1781 100° East 472 543 35,000  Level Salt Lake Center
Thu 06:58:42 PM 46.4275 -104.9981 100° East 472 543 35,000  Level Salt Lake Center
Thu 06:59:44 PM 46.4072 -104.8217 99° East 469 540 35,000  Level Salt Lake Center
Thu 07:00:45 PM 46.3844 -104.6369 100° East 473 544 35,000  Level Salt Lake Center
Thu 07:01:47 PM 46.3608 -104.4514 100° East 472 543 35,000  Level Salt Lake Center
Thu 07:02:48 PM 46.3328 -104.2322 100° East 468 539 35,000  Level Salt Lake Center
Thu 07:03:50 PM 46.3097 -104.0497 100° East 466 536 35,000  Level Salt Lake Center
Thu 07:04:51 PM 46.2864 -103.8681 100° East 464 534 35,000  Level Salt Lake Center
Thu 07:05:53 PM 46.2622 -103.6875 101° East 462 532 35,000  Level Salt Lake Center
Thu 07:06:55 PM 46.2381 -103.5033 101° East 465 535 35,000  Level Salt Lake Center
Thu 07:07:56 PM 46.2142 -103.3211 101° East 466 536 35,000  Level Salt Lake Center
Thu 07:08:19 PM 46.2056 -103.2564 101° East 461 531 35,000 282 Level Minneapolis Center
Thu 07:09:21 PM 46.1806 -103.0747 101° East 463 533 35,400 581 Climbing Minneapolis Center
Thu 07:10:23 PM 46.1492 -102.8569 102° East 465 535 36,200 726 Climbing Minneapolis Center
Thu 07:11:25 PM 46.1225 -102.6744 102° East 466 536 36,900 387 Climbing Minneapolis Center
Thu 07:12:27 PM 46.0961 -102.5039 103° East 468 539 37,000 48 Climbing Minneapolis Center
Thu 07:13:29 PM 46.0661 -102.2806 101° East 472 543 37,000  Level Minneapolis Center
Thu 07:14:31 PM 46.0394 -102.0992 102° East 467 537 37,000  Level Minneapolis Center
Thu 07:15:34 PM 46.0106 -101.9189 103° East 464 534 37,000  Level Minneapolis Center
Thu 07:16:36 PM 45.9847 -101.7361 101° East 465 535 37,000  Level Minneapolis Center
Thu 07:17:38 PM 45.9564 -101.5547 103° East 465 535 37,000  Level Minneapolis Center
Thu 07:18:40 PM 45.9286 -101.3725 102° East 466 536 37,000  Level Minneapolis Center
Thu 07:19:42 PM 45.8950 -101.1503 102° East 471 542 37,000  Level Minneapolis Center
Thu 07:20:44 PM 45.8664 -100.9661 103° East 472 543 37,000  Level Minneapolis Center
Thu 07:21:46 PM 45.8372 -100.7844 103° East 471 542 37,000  Level Minneapolis Center
Thu 07:22:48 PM 45.8078 -100.6017 103° East 470 541 37,000  Level Minneapolis Center
Thu 07:23:50 PM 45.7828 -100.4558 104° East 470 541 37,000  Level Minneapolis Center
Thu 07:24:52 PM 45.7467 -100.2353 103° East 472 543 37,000  Level Minneapolis Center
Thu 07:25:54 PM 45.7158 -100.0533 104° East 469 540 37,000  Level Minneapolis Center
Thu 07:26:57 PM 45.6783 -99.8314 104° East 474 545 37,000  Level Minneapolis Center
Thu 07:27:59 PM 45.6467 -99.6467 104° East 475 547 37,000  Level Minneapolis Center
Thu 07:29:01 PM 45.6142 -99.4622 104° East 476 548 37,000  Level Minneapolis Center
Thu 07:30:03 PM 45.5825 -99.2778 104° East 476 548 37,000  Level Minneapolis Center
Thu 07:31:05 PM 45.5500 -99.0950 104° East 475 547 37,000  Level Minneapolis Center
Thu 07:32:07 PM 45.5156 -98.9119 105° East 477 549 37,000  Level Minneapolis Center
Thu 07:33:09 PM 45.4842 -98.7308 104° East 473 544 37,000  Level Minneapolis Center
Thu 07:34:11 PM 45.4447 -98.5161 105° East 468 539 37,000  Level Minneapolis Center
Thu 07:35:26 PM 45.4122 -98.2986 102° East 467 537 37,000  Level Minneapolis Center
Thu 07:36:28 PM 45.4081 -98.1117 92° East 470 541 37,000  Level Minneapolis Center
Thu 07:37:30 PM 45.4019 -97.9100 92° East 471 542 37,000  Level Minneapolis Center
Thu 07:38:32 PM 45.3950 -97.7231 93° East 474 545 37,000  Level Minneapolis Center
Thu 07:39:34 PM 45.3878 -97.5372 93° East 472 543 37,000  Level Minneapolis Center
Thu 07:40:36 PM 45.3792 -97.3503 94° East 473 544 37,000  Level Minneapolis Center
Thu 07:41:38 PM 45.3722 -97.1631 93° East 474 545 37,000  Level Minneapolis Center
Thu 07:42:40 PM 45.3639 -96.9761 94° East 474 545 37,000  Level Minneapolis Center
Thu 07:43:42 PM 45.3544 -96.7514 93° East 476 548 37,000  Level Minneapolis Center
Thu 07:44:45 PM 45.3444 -96.5631 94° East 478 550 37,000  Level Minneapolis Center
Thu 07:45:47 PM 45.3347 -96.3747 94° East 477 549 37,000  Level Minneapolis Center
Thu 07:46:49 PM 45.3258 -96.1861 94° East 479 551 37,000  Level Minneapolis Center
Thu 07:48:03 PM 45.3164 -95.9978 94° East 479 551 37,000  Level Minneapolis Center
Thu 07:49:05 PM 45.3033 -95.7714 95° East 478 550 37,000  Level Minneapolis Center
Thu 07:50:07 PM 45.2919 -95.5425 94° East 482 555 37,000  Level Minneapolis Center
Thu 07:51:09 PM 45.2806 -95.3533 95° East 482 555 37,000  Level Minneapolis Center
Thu 07:52:12 PM 45.2686 -95.1611 95° East 486 559 37,000  Level Minneapolis Center
Thu 07:53:14 PM 45.2569 -94.9689 95° East 488 562 37,000  Level Minneapolis Center
Thu 07:54:16 PM 45.2442 -94.7767 95° East 490 564 37,000  Level Minneapolis Center
Thu 07:55:18 PM 45.2314 -94.5686 95° East 491 565 37,000  Level Minneapolis Center
Thu 07:56:20 PM 45.2181 -94.3775 96° East 489 563 37,000  Level Minneapolis Center
Thu 07:57:22 PM 45.2056 -94.1881 95° East 485 558 37,000  Level Minneapolis Center
Thu 07:58:25 PM 45.1917 -93.9983 96° East 486 559 37,000  Level Minneapolis Center
Thu 07:59:27 PM 45.1758 -93.7708 96° East 484 557 37,000  Level Minneapolis Center
Thu 08:00:29 PM 45.1619 -93.5817 96° East 483 556 37,000  Level Minneapolis Center
Thu 08:01:31 PM 45.1469 -93.3906 96° East 485 558 37,000  Level Minneapolis Center
Thu 08:02:33 PM 45.1306 -93.2008 97° East 483 556 37,000  Level Minneapolis Center
Thu 08:03:35 PM 45.1147 -93.0111 97° East 483 556 37,000  Level Minneapolis Center
Thu 08:04:37 PM 45.0972 -92.8219 97° East 483 556 37,000  Level Minneapolis Center
Thu 08:05:39 PM 45.0803 -92.6342 97° East 481 554 37,000  Level Minneapolis Center
Thu 08:06:41 PM 45.0597 -92.4094 97° East 480 552 37,000  Level Minneapolis Center
Thu 08:07:43 PM 45.0419 -92.2231 98° East 480 552 37,000  Level Minneapolis Center
Thu 08:08:44 PM 45.0261 -92.0736 98° East 481 554 37,000  Level Minneapolis Center
Thu 08:09:47 PM 45.0028 -91.8506 98° East 480 552 37,000  Level Minneapolis Center
Thu 08:10:48 PM 44.9864 -91.7006 99° East 482 555 37,000  Level Minneapolis Center
Thu 08:11:51 PM 44.9614 -91.4764 99° East 483 556 37,000  Level Minneapolis Center
Thu 08:12:53 PM 44.9378 -91.2539 98° East 482 555 37,000  Level Minneapolis Center
Thu 08:13:55 PM 44.9164 -91.0703 99° East 479 551 37,000  Level Minneapolis Center
Thu 08:14:56 PM 44.8961 -90.8850 99° East 479 551 37,000  Level Minneapolis Center
Thu 08:15:58 PM 44.8753 -90.7011 99° East 478 550 37,000  Level Minneapolis Center
Thu 08:17:00 PM 44.8536 -90.5161 99° East 480 552 37,000  Level Minneapolis Center
Thu 08:18:02 PM 44.8303 -90.3194 99° East 480 552 37,000  Level Minneapolis Center
Thu 08:19:04 PM 44.8117 -90.1633 99° East 483 556 37,000  Level Minneapolis Center
Thu 08:20:06 PM 44.7844 -89.9447 100° East 486 559 37,000  Level Minneapolis Center
Thu 08:21:08 PM 44.7569 -89.7236 100° East 486 559 37,000  Level Minneapolis Center
Thu 08:22:10 PM 44.7339 -89.5361 100° East 487 560 37,000  Level Minneapolis Center
Thu 08:23:12 PM 44.7092 -89.3475 100° East 488 562 37,000  Level Minneapolis Center
Thu 08:24:14 PM 44.6853 -89.1597 100° East 488 562 37,000  Level Minneapolis Center
Thu 08:25:15 PM 44.6647 -89.0036 100° East 487 560 37,000  Level Minneapolis Center
Thu 08:26:18 PM 44.6356 -88.7867 101° East 485 558 37,000  Level Minneapolis Center
Thu 08:27:19 PM 44.6064 -88.5672 101° East 487 560 37,000  Level Minneapolis Center
Thu 08:28:21 PM 44.5808 -88.3803 101° East 488 562 37,000  Level Minneapolis Center
Thu 08:29:23 PM 44.5511 -88.1911 102° East 493 567 37,000  Level Minneapolis Center
Thu 08:30:25 PM 44.4956 -88.0153 114° Southeast 493 567 37,000  Level Minneapolis Center
Thu 08:31:27 PM 44.4369 -87.8386 115° Southeast 498 573 37,000  Level Minneapolis Center
Thu 08:32:29 PM 44.3786 -87.6656 115° Southeast 492 566 37,000  Level Minneapolis Center
Thu 08:33:31 PM 44.3103 -87.4619 115° Southeast 494 568 37,000  Level Minneapolis Center
Thu 08:34:33 PM 44.2503 -87.2881 116° Southeast 494 568 37,000  Level Minneapolis Center
Thu 08:35:35 PM 44.1944 -87.1225 115° Southeast 493 567 37,000  Level Minneapolis Center
Thu 08:36:37 PM 44.1367 -86.9553 116° Southeast 491 565 37,000  Level Minneapolis Center
Thu 08:37:39 PM 44.0781 -86.7828 115° Southeast 493 567 37,000  Level Minneapolis Center
Thu 08:38:41 PM 44.0056 -86.5764 116° Southeast 494 568 37,000  Level Minneapolis Center
Thu 08:39:43 PM 43.9461 -86.4056 116° Southeast 494 568 37,000  Level Minneapolis Center
Thu 08:40:45 PM 43.8869 -86.2342 116° Southeast 492 566 37,000  Level Minneapolis Center
Thu 08:41:47 PM 43.8264 -86.0633 116° Southeast 493 567 37,000  Level Minneapolis Center
Thu 08:42:49 PM 43.7656 -85.8917 116° Southeast 494 568 37,000  Level Minneapolis Center
Thu 08:43:51 PM 43.7044 -85.7211 116° Southeast 494 568 37,000  Level Minneapolis Center
Thu 08:45:06 PM 43.6297 -85.5167 117° Southeast 494 568 37,000  Level Minneapolis Center
Thu 08:46:08 PM 43.5556 -85.3114 116° Southeast 496 571 37,000  Level Minneapolis Center
Thu 08:47:59 PM 43.4428 -85.0036 117° Southeast 496 571 37,000  Level Chicago Center
Thu 08:49:01 PM 43.3783 -84.8356 118° Southeast 495 570 37,000  Level Chicago Center
Thu 08:49:34 PM 43.3253 -84.7444 129° Southeast 494 568 37,000  Level Cleveland Center
Thu 08:50:34 PM 43.2278 -84.6094 135° Southeast 494 568 37,000  Level Cleveland Center
Thu 08:51:34 PM 43.1322 -84.4811 136° Southeast 484 557 37,000  Level Cleveland Center
Thu 08:52:07 PM 43.0950 -84.4317 136° Southeast 489 563 37,000  Level Chicago Center
Thu 08:52:34 PM 43.0342 -84.3525 136° Southeast 484 557 37,000  Level Cleveland Center
Thu 08:53:34 PM 42.9483 -84.2339 135° Southeast 492 566 37,000  Level Cleveland Center
Thu 08:54:34 PM 42.8525 -84.1064 136° Southeast 487 560 37,000  Level Cleveland Center
Thu 08:55:34 PM 42.7481 -83.9678 136° Southeast 487 560 37,000  Level Cleveland Center
Thu 08:56:34 PM 42.6517 -83.8383 135° Southeast 487 560 37,000  Level Cleveland Center
Thu 08:57:34 PM 42.5553 -83.7092 135° Southeast 487 560 37,000  Level Cleveland Center
Thu 08:58:34 PM 42.4586 -83.5806 136° Southeast 487 560 37,000  Level Cleveland Center
Thu 08:59:34 PM 42.3578 -83.4522 137° Southeast 492 566 37,000  Level Cleveland Center
Thu 09:00:34 PM 42.2628 -83.3244 135° Southeast 492 566 37,000  Level Cleveland Center
Thu 09:01:33 PM 42.1636 -83.1939 136° Southeast 491 565 37,000  Level Cleveland Center
Thu 09:02:34 PM 42.0664 -83.0669 136° Southeast 496 571 37,000  Level Cleveland Center
Thu 09:03:34 PM 41.9689 -82.9431 137° Southeast 491 565 37,000  Level Cleveland Center
Thu 09:04:34 PM 41.8714 -82.8167 136° Southeast 491 565 37,000  Level Cleveland Center
Thu 09:05:34 PM 41.7739 -82.6908 136° Southeast 491 565 37,000  Level Cleveland Center
Thu 09:06:34 PM 41.6717 -82.5736 139° Southeast 491 565 37,000  Level Cleveland Center
Thu 09:07:34 PM 41.5839 -82.4653 137° Southeast 486 559 37,000  Level Cleveland Center
Thu 09:08:34 PM 41.4817 -82.3403 137° Southeast 486 559 37,000  Level Cleveland Center
Thu 09:09:34 PM 41.3811 -82.2214 138° Southeast 486 559 37,000  Level Cleveland Center
Thu 09:10:34 PM 41.2808 -82.0972 137° Southeast 486 559 37,000  Level Cleveland Center
Thu 09:11:34 PM 41.1803 -81.9764 138° Southeast 486 559 37,000  Level Cleveland Center
Thu 09:12:34 PM 41.0731 -81.8556 140° Southeast 502 578 37,000  Level Cleveland Center
Thu 09:13:34 PM 40.9703 -81.7325 138° Southeast 502 578 37,000  Level Cleveland Center
Thu 09:14:34 PM 40.8714 -81.6156 138° Southeast 496 571 37,000  Level Cleveland Center
Thu 09:15:34 PM 40.7681 -81.4961 139° Southeast 496 571 37,000  Level Cleveland Center
Thu 09:16:34 PM 40.6544 -81.3658 139° Southeast 496 571 37,000  Level Cleveland Center
Thu 09:17:34 PM 40.5656 -81.2528 136° Southeast 496 571 37,000  Level Cleveland Center
Thu 09:18:34 PM 40.4619 -81.1344 139° Southeast 491 565 37,000  Level Cleveland Center
Thu 09:19:34 PM 40.3603 -81.0192 139° Southeast 491 565 37,000  Level Cleveland Center
Thu 09:20:34 PM 40.2544 -80.8986 139° Southeast 491 565 37,000  Level Cleveland Center
Thu 09:21:34 PM 40.1525 -80.7814 139° Southeast 491 565 37,000  Level Cleveland Center
Thu 09:22:34 PM 40.0483 -80.6644 139° Southeast 491 565 37,000  Level Cleveland Center
Thu 09:23:34 PM 39.9442 -80.5453 139° Southeast 491 565 37,000  Level Cleveland Center
Thu 09:24:34 PM 39.8378 -80.4261 139° Southeast 498 573 37,000  Level Cleveland Center
Thu 09:25:34 PM 39.7333 -80.3078 139° Southeast 498 573 37,000  Level Cleveland Center
Thu 09:26:34 PM 39.6267 -80.1897 140° Southeast 503 579 37,000 -330 Level Cleveland Center
Thu 09:27:05 PM 39.5619 -80.1194 140° Southeast 507 583 36,500 -1,121 Descending Washington Center
Thu 09:28:05 PM 39.4558 -80.0025 140° Southeast 507 583 35,300 -2,083 Descending Washington Center
Thu 09:29:06 PM 39.3578 -79.8917 139° Southeast 521 600 32,300 -2,115 Descending Washington Center
Thu 09:30:07 PM 39.2922 -79.7406 119° Southeast 490 564 31,000 -655 Descending Washington Center
Thu 09:31:05 PM 39.2792 -79.5708 96° East 457 526 31,000 -504 Level Washington Center
Thu 09:32:06 PM 39.2639 -79.4008 97° East 462 532 30,000 -1,488 Descending Washington Center
Thu 09:33:06 PM 39.2444 -79.2178 98° East 470 541 28,000 -1,785 Descending Washington Center
Thu 09:34:07 PM 39.2325 -79.0564 95° East 463 533 26,400 -1,770 Descending Washington Center
Thu 09:35:08 PM 39.2181 -78.9056 97° East 444 511 24,400 -2,000 Descending Washington Center
Thu 09:36:07 PM 39.2033 -78.7575 97° East 432 497 22,400 -1,966 Descending Washington Center
Thu 09:37:07 PM 39.1903 -78.6150 97° East 409 471 20,500 -1,932 Descending Washington Center
Thu 09:38:05 PM 39.1747 -78.4778 98° East 404 465 18,600 -1,765 Descending Washington Center
Thu 09:39:06 PM 39.1592 -78.3433 98° East 391 450 17,000 -1,041 Descending Washington Center
Thu 09:40:06 PM 39.1267 -78.2139 108° East 375 432 16,500 -992 Descending Washington Center
Thu 09:41:07 PM 39.0939 -78.0894 109° East 375 432 15,000 -1,361 Descending Washington Center
Thu 09:42:05 PM 39.0611 -77.9628 108° East 375 432 13,800 -1,311 Descending Washington Center
Thu 09:43:06 PM 39.0339 -77.8522 108° East 365 420 12,400 -1,377 Descending Washington Center
Thu 09:44:07 PM 39.0008 -77.7231 108° East 352 405 11,000 -1,091 Descending Washington Center
Thu 09:45:07 PM 38.9753 -77.6289 109° East 328 377 10,200 -800 Descending Washington Center
Thu 09:45:22 PM 38.9667 -77.5833 104° East 308 354 10,000 -1,280 Descending Potomac TRACON
Thu 09:46:22 PM 38.9333 -77.4833 113° Southeast 300 345 8,600 -1,350 Descending Potomac TRACON
Thu 09:47:22 PM 38.8833 -77.4000 128° Southeast 296 341 7,300 -1,200 Descending Potomac TRACON
Thu 09:48:22 PM 38.8500 -77.3000 113° Southeast 288 331 6,200 -900 Descending Potomac TRACON
Thu 09:49:22 PM 38.8167 -77.2333 123° Southeast 256 295 5,500 -850 Descending Potomac TRACON
Thu 09:50:22 PM 38.7833 -77.1500 117° Southeast 251 289 4,500 -714 Descending Potomac TRACON
Thu 09:51:28 PM 38.7167 -77.1167 159° South 245 282 4,000 -286 Descending Potomac TRACON
Thu 09:52:28 PM 38.6500 -77.1000 169° South 218 251 3,900 -400 Descending Potomac TRACON
Thu 09:53:28 PM 38.6667 -77.0333 72° East 193 222 3,200 -694 Descending Potomac TRACON
Thu 09:54:29 PM 38.7167 -77.0333 360° North 171 197 2,500 -793 Descending Potomac TRACON
Thu 09:55:29 PM 38.7667 -77.0333 360° North 183 211 1,600 -850 Descending Potomac TRACON
Thu 09:56:29 PM 38.8167 -77.0333 360° North 168 193 800 -800 Descending Potomac TRACON
Thu 09:58:00 PM 38.8500 -77.0333 North  Level FlightAware Approximate

Login

Don't have an account? Register now (free) for customized features, flight alerts, and more!